Time;durP1;ratioP1;P1;durP2;ratioP2;P2;SDS_P1;SDS_P2;PMS_P1;PMS_P2;Temp;Humidity;BMP_temperature;BMP_pressure;BME280_temperature;BME280_humidity;BME280_pressure;Samples;Min_cycle;Max_cycle;Signal;HPM_P1;HPM_P2
2022/04/06 00:00:07;;;;;;;;;;;8.10;99.90;;;;;;5110942;28;19923;-92
2022/04/06 00:02:33;;;;;;;;;;;8.10;99.90;;;;;;5114039;28;19931;-92
2022/04/06 00:05:01;;;;;;;;;;;8.10;99.90;;;;;;5111752;28;19949;-91
2022/04/06 00:07:28;;;;;;;;;;;8.10;99.90;;;;;;5092614;28;19932;-92
2022/04/06 00:09:55;;;;;;;;;;;8.10;99.90;;;;;;5092336;28;19924;-92
2022/04/06 00:12:22;;;;;;;;;;;8.10;99.90;;;;;;5111440;28;19953;-93
2022/04/06 00:14:51;;;;;;;;;;;8.10;99.90;;;;;;5093936;28;19924;-91
2022/04/06 00:17:18;;;;;;;;;;;8.10;99.90;;;;;;5092960;28;19931;-92
2022/04/06 00:19:45;;;;;;;;;;;8.10;99.90;;;;;;5111013;28;19928;-92
2022/04/06 00:22:12;;;;;;;;;;;8.10;99.90;;;;;;5092847;28;20078;-91
2022/04/06 00:24:39;;;;;;;;;;;8.10;99.90;;;;;;5097144;28;19969;-91
2022/04/06 00:27:06;;;;;;;;;;;8.00;99.90;;;;;;5089558;28;20410;-92
2022/04/06 00:29:36;;;;;;;;;;;8.10;99.90;;;;;;5095158;28;19995;-92
2022/04/06 00:32:05;;;;;;;;;;;8.00;99.90;;;;;;5114015;28;19936;-92
2022/04/06 00:37:16;;;;;;;;;;;8.10;99.90;;;;;;5087496;28;19919;-92
2022/04/06 00:39:43;;;;;;;;;;;8.10;99.90;;;;;;5092364;28;19924;-92
2022/04/06 00:42:10;;;;;;;;;;;8.00;99.90;;;;;;5095081;28;19924;-92
2022/04/06 00:44:37;;;;;;;;;;;8.00;99.90;;;;;;5110658;28;19927;-92
2022/04/06 00:47:06;;;;;;;;;;;8.00;99.90;;;;;;5089667;28;19931;-92
2022/04/06 00:49:34;;;;;;;;;;;8.00;99.90;;;;;;5116834;28;19930;-92
2022/04/06 00:52:02;;;;;;;;;;;8.00;99.90;;;;;;5096184;28;19931;-92
2022/04/06 00:54:30;;;;;;;;;;;8.00;99.90;;;;;;5094323;28;19931;-92
2022/04/06 00:56:57;;;;;;;;;;;8.00;99.90;;;;;;5126428;22;19923;-81
2022/04/06 00:59:26;;;;;;;;;;;8.00;99.90;;;;;;5132405;27;19924;-81
2022/04/06 01:01:53;;;;;;;;;;;8.00;99.90;;;;;;5110830;27;19924;-81
2022/04/06 01:04:22;;;;;;;;;;;8.00;99.90;;;;;;5132293;27;19923;-82
2022/04/06 01:06:49;;;;;;;;;;;8.00;99.90;;;;;;5132465;27;19949;-80
2022/04/06 01:09:17;;;;;;;;;;;8.00;99.90;;;;;;5123277;27;19949;-81
2022/04/06 01:11:45;;;;;;;;;;;8.00;99.90;;;;;;5112651;27;19924;-80
2022/04/06 01:14:13;;;;;;;;;;;8.00;99.90;;;;;;5134947;27;19928;-81
2022/04/06 01:16:40;;;;;;;;;;;8.00;99.90;;;;;;5127651;27;19953;-80
2022/04/06 01:19:07;;;;;;;;;;;8.00;99.90;;;;;;5128623;27;19931;-81
2022/04/06 01:21:35;;;;;;;;;;;8.00;99.90;;;;;;5126293;27;19977;-81
2022/04/06 01:24:04;;;;;;;;;;;8.00;99.90;;;;;;5136288;27;19931;-81
2022/04/06 01:26:34;;;;;;;;;;;8.00;99.90;;;;;;5127865;27;19924;-81
2022/04/06 01:29:01;;;;;;;;;;;8.00;99.90;;;;;;5108005;27;20299;-79
2022/04/06 01:31:31;;;;;;;;;;;8.00;99.90;;;;;;5110092;27;19924;-82
2022/04/06 01:33:58;;;;;;;;;;;8.00;99.90;;;;;;5134031;27;20359;-81
2022/04/06 01:36:24;;;;;;;;;;;8.00;99.90;;;;;;5117722;27;19930;-81
2022/04/06 01:38:51;;;;;;;;;;;8.00;99.90;;;;;;5126566;27;20018;-81
2022/04/06 01:41:20;;;;;;;;;;;8.00;99.90;;;;;;5126996;27;19966;-80
2022/04/06 01:43:46;;;;;;;;;;;8.00;99.90;;;;;;5130780;27;19928;-81
2022/04/06 01:46:13;;;;;;;;;;;8.00;99.90;;;;;;5116670;27;19923;-81
2022/04/06 01:52:12;;;;;;;;;;;8.00;99.90;;;;;;5134828;27;20010;-80
2022/04/06 01:54:12;;;;;;;;;;;8.00;99.90;;;;;;5105615;27;20019;-80
2022/04/06 01:56:41;;;;;;;;;;;7.90;99.90;;;;;;5131901;27;19927;-82
2022/04/06 01:59:08;;;;;;;;;;;8.00;99.90;;;;;;5133271;27;19988;-81
2022/04/06 02:01:37;;;;;;;;;;;8.00;99.90;;;;;;5127183;27;19923;-80
2022/04/06 02:04:06;;;;;;;;;;;8.00;99.90;;;;;;5135033;27;19942;-82
2022/04/06 02:06:35;;;;;;;;;;;8.00;99.90;;;;;;5111203;27;20526;-81
2022/04/06 02:09:04;;;;;;;;;;;8.00;99.90;;;;;;5113741;27;20098;-81
2022/04/06 02:11:34;;;;;;;;;;;8.00;99.90;;;;;;5124789;27;19923;-81
2022/04/06 02:14:02;;;;;;;;;;;8.00;99.90;;;;;;5126787;27;20010;-80
2022/04/06 02:16:29;;;;;;;;;;;8.00;99.90;;;;;;5129453;27;20592;-81
2022/04/06 02:18:56;;;;;;;;;;;8.00;99.90;;;;;;5130045;27;19927;-80
2022/04/06 02:21:23;;;;;;;;;;;8.00;99.90;;;;;;5126865;27;19924;-79
2022/04/06 02:23:50;;;;;;;;;;;8.00;99.90;;;;;;5116331;27;20001;-81
2022/04/06 02:26:17;;;;;;;;;;;7.90;99.90;;;;;;5125353;27;19990;-81
2022/04/06 02:28:44;;;;;;;;;;;8.00;99.90;;;;;;5130494;27;19968;-81
2022/04/06 02:31:12;;;;;;;;;;;8.00;99.90;;;;;;5116795;27;20022;-82
2022/04/06 02:33:39;;;;;;;;;;;8.00;99.90;;;;;;5132555;27;19924;-81
2022/04/06 02:36:06;;;;;;;;;;;7.90;99.90;;;;;;5126026;27;19942;-81
2022/04/06 02:38:38;;;;;;;;;;;7.90;99.90;;;;;;5126274;27;19931;-82
2022/04/06 02:41:05;;;;;;;;;;;8.00;99.90;;;;;;5115389;27;19935;-80
2022/04/06 02:43:32;;;;;;;;;;;8.00;99.90;;;;;;5113704;27;20381;-81
2022/04/06 02:45:59;;;;;;;;;;;7.90;99.90;;;;;;5127766;27;19988;-81
2022/04/06 02:48:28;;;;;;;;;;;8.00;99.90;;;;;;5112639;27;19977;-81
2022/04/06 02:50:55;;;;;;;;;;;8.00;99.90;;;;;;5118721;27;19923;-81
2022/04/06 02:53:22;;;;;;;;;;;7.90;99.90;;;;;;5114557;27;19931;-81
2022/04/06 02:55:49;;;;;;;;;;;7.90;99.90;;;;;;5126627;27;19931;-81
2022/04/06 02:58:16;;;;;;;;;;;7.90;99.90;;;;;;5134640;27;20436;-80
2022/04/06 03:00:43;;;;;;;;;;;7.90;99.90;;;;;;5111967;27;19930;-80
2022/04/06 03:03:10;;;;;;;;;;;7.90;99.90;;;;;;5106043;27;19927;-79
2022/04/06 03:05:40;;;;;;;;;;;7.90;99.90;;;;;;5133240;27;19970;-81
2022/04/06 03:08:08;;;;;;;;;;;7.90;99.90;;;;;;5131888;27;19927;-80
2022/04/06 03:10:35;;;;;;;;;;;7.90;99.90;;;;;;5130364;27;19924;-82
2022/04/06 03:13:02;;;;;;;;;;;7.90;99.90;;;;;;5128520;27;21384;-81
2022/04/06 03:15:29;;;;;;;;;;;7.90;99.90;;;;;;5109542;27;19969;-80
2022/04/06 03:17:56;;;;;;;;;;;7.90;99.90;;;;;;5124687;27;19930;-81
2022/04/06 03:20:23;;;;;;;;;;;7.90;99.90;;;;;;5122370;27;19930;-81
2022/04/06 03:22:51;;;;;;;;;;;7.90;99.90;;;;;;5123254;27;19927;-81
2022/04/06 03:25:18;;;;;;;;;;;7.90;99.90;;;;;;5127507;27;19955;-81
2022/04/06 03:27:45;;;;;;;;;;;7.90;99.90;;;;;;5130535;27;19923;-81
2022/04/06 03:30:12;;;;;;;;;;;7.90;99.90;;;;;;5122716;27;19949;-81
2022/04/06 03:32:39;;;;;;;;;;;7.90;99.90;;;;;;5115154;27;19935;-81
2022/04/06 03:35:07;;;;;;;;;;;7.90;99.90;;;;;;5124489;27;20308;-81
2022/04/06 03:37:34;;;;;;;;;;;7.90;99.90;;;;;;5131408;27;19958;-80
2022/04/06 03:40:05;;;;;;;;;;;7.90;99.90;;;;;;5116471;27;19923;-81
2022/04/06 03:42:32;;;;;;;;;;;7.90;99.90;;;;;;5119141;27;19976;-81
2022/04/06 03:44:59;;;;;;;;;;;7.90;99.90;;;;;;5130624;27;19945;-86
2022/04/06 03:47:30;;;;;;;;;;;7.90;99.90;;;;;;5131212;27;19924;-83
2022/04/06 03:49:57;;;;;;;;;;;7.90;99.90;;;;;;5132410;27;19927;-83
2022/04/06 03:52:25;;;;;;;;;;;7.90;99.90;;;;;;5109212;27;19955;-83
2022/04/06 03:54:52;;;;;;;;;;;7.90;99.90;;;;;;5126207;27;19927;-89
2022/04/06 03:57:20;;;;;;;;;;;7.90;99.90;;;;;;5131433;27;19923;-85
2022/04/06 03:59:47;;;;;;;;;;;7.90;99.90;;;;;;5126227;27;19930;-86
2022/04/06 04:02:14;;;;;;;;;;;7.90;99.90;;;;;;5113796;27;19931;-84
2022/04/06 04:04:41;;;;;;;;;;;7.80;99.90;;;;;;5110303;27;19923;-86
2022/04/06 04:07:08;;;;;;;;;;;7.90;99.90;;;;;;5128244;27;20331;-87
2022/04/06 04:09:35;;;;;;;;;;;7.90;99.90;;;;;;5108019;27;20419;-82
2022/04/06 04:12:02;;;;;;;;;;;7.80;99.90;;;;;;5128594;27;20404;-85
2022/04/06 04:14:33;;;;;;;;;;;7.90;99.90;;;;;;5122190;27;19969;-83
2022/04/06 04:17:00;;;;;;;;;;;7.90;99.90;;;;;;5112192;27;19927;-84
2022/04/06 04:19:27;;;;;;;;;;;7.90;99.90;;;;;;5125604;27;20361;-85
2022/04/06 04:21:55;;;;;;;;;;;7.90;99.90;;;;;;5109934;27;20017;-87
2022/04/06 04:24:21;;;;;;;;;;;7.90;99.90;;;;;;5128955;27;20106;-83
2022/04/06 04:26:48;;;;;;;;;;;7.80;99.90;;;;;;5123882;27;19923;-83
2022/04/06 04:29:15;;;;;;;;;;;7.80;99.90;;;;;;5131068;27;19978;-86
2022/04/06 04:31:44;;;;;;;;;;;7.80;99.90;;;;;;5110694;27;19945;-87
2022/04/06 04:34:11;;;;;;;;;;;7.80;99.90;;;;;;5126491;27;19941;-84
2022/04/06 04:36:38;;;;;;;;;;;7.80;99.90;;;;;;5104851;27;19972;-84
2022/04/06 04:39:05;;;;;;;;;;;7.80;99.90;;;;;;5121504;27;19934;-84
2022/04/06 04:41:32;;;;;;;;;;;7.80;99.90;;;;;;5125731;27;19924;-84
2022/04/06 04:43:59;;;;;;;;;;;7.80;99.90;;;;;;5124701;27;19923;-87
2022/04/06 04:46:27;;;;;;;;;;;7.80;99.90;;;;;;5103318;27;19931;-84
2022/04/06 04:48:55;;;;;;;;;;;7.80;99.90;;;;;;5126881;27;19927;-84
2022/04/06 04:51:22;;;;;;;;;;;7.80;99.90;;;;;;5126445;27;20042;-84
2022/04/06 04:53:49;;;;;;;;;;;7.80;99.90;;;;;;5122818;27;19931;-84
2022/04/06 04:56:16;;;;;;;;;;;7.80;99.90;;;;;;5124180;27;19931;-84
2022/04/06 04:58:43;;;;;;;;;;;7.80;99.90;;;;;;5123835;27;20002;-84
2022/04/06 05:01:10;;;;;;;;;;;7.80;99.90;;;;;;5125551;27;19971;-83
2022/04/06 05:03:37;;;;;;;;;;;7.80;99.90;;;;;;5105715;27;20393;-83
2022/04/06 05:06:05;;;;;;;;;;;7.80;99.90;;;;;;5104041;27;19932;-82
2022/04/06 05:08:32;;;;;;;;;;;7.80;99.90;;;;;;5129635;27;19948;-83
2022/04/06 05:10:59;;;;;;;;;;;7.70;99.90;;;;;;5114074;27;19976;-84
2022/04/06 05:13:26;;;;;;;;;;;7.80;99.90;;;;;;5103434;27;19923;-82
2022/04/06 05:15:53;;;;;;;;;;;7.80;99.90;;;;;;5123921;27;19934;-87
2022/04/06 05:18:20;;;;;;;;;;;7.80;99.90;;;;;;5112749;27;20301;-85
2022/04/06 05:20:47;;;;;;;;;;;7.80;99.90;;;;;;5122841;27;19926;-83
2022/04/06 05:23:16;;;;;;;;;;;7.80;99.90;;;;;;5125885;27;20022;-83
2022/04/06 05:25:43;;;;;;;;;;;7.80;99.90;;;;;;5129141;27;19931;-82
2022/04/06 05:28:10;;;;;;;;;;;7.80;99.90;;;;;;5125687;27;20014;-83
2022/04/06 05:30:38;;;;;;;;;;;7.80;99.90;;;;;;5105761;27;21001;-82
2022/04/06 05:33:05;;;;;;;;;;;7.80;99.90;;;;;;5127107;27;20429;-82
2022/04/06 05:35:32;;;;;;;;;;;7.80;99.90;;;;;;5125856;27;19930;-85
2022/04/06 05:37:59;;;;;;;;;;;7.70;99.90;;;;;;5104379;27;19937;-83
2022/04/06 05:40:27;;;;;;;;;;;7.70;99.90;;;;;;5119799;27;20562;-84
2022/04/06 05:42:54;;;;;;;;;;;7.70;99.90;;;;;;5127863;27;19928;-84
2022/04/06 05:45:21;;;;;;;;;;;7.70;99.90;;;;;;5110508;27;19984;-83
2022/04/06 05:47:48;;;;;;;;;;;7.70;99.90;;;;;;5107800;27;19924;-83
2022/04/06 05:50:15;;;;;;;;;;;7.70;99.90;;;;;;5118896;27;19946;-82
2022/04/06 05:52:42;;;;;;;;;;;7.70;99.90;;;;;;5115650;27;20351;-82
2022/04/06 05:55:10;;;;;;;;;;;7.90;99.90;;;;;;5104978;27;19971;-82
2022/04/06 05:57:38;;;;;;;;;;;7.90;99.90;;;;;;5120556;27;19932;-82
2022/04/06 06:00:08;;;;;;;;;;;7.90;99.90;;;;;;5104027;27;20010;-82
2022/04/06 06:02:38;;;;;;;;;;;7.80;99.90;;;;;;5118082;27;19934;-82
2022/04/06 06:05:05;;;;;;;;;;;7.80;99.90;;;;;;5100802;27;20704;-82
2022/04/06 06:07:32;;;;;;;;;;;7.80;99.90;;;;;;5115962;27;19935;-82
2022/04/06 06:09:59;;;;;;;;;;;7.80;99.90;;;;;;5092133;27;20257;-82
2022/04/06 06:12:26;;;;;;;;;;;7.80;99.90;;;;;;5098256;27;19924;-82
2022/04/06 06:14:54;;;;;;;;;;;7.80;99.90;;;;;;5117627;27;19923;-84
2022/04/06 06:17:21;;;;;;;;;;;7.80;99.90;;;;;;5127142;27;19987;-83
2022/04/06 06:19:48;;;;;;;;;;;7.80;99.90;;;;;;5105404;27;19968;-82
2022/04/06 06:22:15;;;;;;;;;;;7.80;99.90;;;;;;5114485;27;19923;-83
2022/04/06 06:24:41;;;;;;;;;;;7.80;99.90;;;;;;5125280;27;20337;-81
2022/04/06 06:27:08;;;;;;;;;;;7.80;99.90;;;;;;5125509;27;19962;-82
2022/04/06 06:29:35;;;;;;;;;;;7.80;99.90;;;;;;5126177;27;19984;-83
2022/04/06 06:32:04;;;;;;;;;;;7.80;99.90;;;;;;5125028;27;20061;-82
2022/04/06 06:34:31;;;;;;;;;;;7.80;99.90;;;;;;5112270;27;20373;-81
2022/04/06 06:36:57;;;;;;;;;;;7.80;99.90;;;;;;5118747;27;20289;-85
2022/04/06 06:39:25;;;;;;;;;;;7.80;99.90;;;;;;5125915;27;20024;-81
2022/04/06 06:41:52;;;;;;;;;;;7.80;99.90;;;;;;5129168;27;19927;-83
2022/04/06 06:44:20;;;;;;;;;;;7.90;99.90;;;;;;5133776;27;19929;-82
2022/04/06 06:46:47;;;;;;;;;;;7.90;99.90;;;;;;5128372;27;19968;-82
2022/04/06 06:49:16;;;;;;;;;;;7.90;99.90;;;;;;5132016;27;19923;-83
2022/04/06 06:51:43;;;;;;;;;;;7.90;99.90;;;;;;5112640;27;20342;-82
2022/04/06 06:54:10;;;;;;;;;;;7.90;99.90;;;;;;5119560;27;19955;-86
2022/04/06 06:56:37;;;;;;;;;;;7.90;99.90;;;;;;5126718;27;19934;-83
2022/04/06 06:59:03;;;;;;;;;;;7.90;99.90;;;;;;5117404;27;19927;-82
2022/04/06 07:01:30;;;;;;;;;;;7.90;99.90;;;;;;5124007;27;19931;-83
2022/04/06 07:03:57;;;;;;;;;;;7.90;99.90;;;;;;5106347;27;19935;-82
2022/04/06 07:06:26;;;;;;;;;;;7.90;99.90;;;;;;5124496;27;20866;-82
2022/04/06 07:08:53;;;;;;;;;;;8.00;99.90;;;;;;5113277;27;20014;-83
2022/04/06 07:11:20;;;;;;;;;;;7.90;99.90;;;;;;5123470;27;19940;-84
2022/04/06 07:13:47;;;;;;;;;;;8.00;99.90;;;;;;5128833;27;19974;-83
2022/04/06 07:16:15;;;;;;;;;;;8.00;99.90;;;;;;5122667;27;19923;-83
2022/04/06 07:18:42;;;;;;;;;;;8.00;99.90;;;;;;5127981;27;20734;-82
2022/04/06 07:21:09;;;;;;;;;;;8.00;99.90;;;;;;5121246;27;19937;-83
2022/04/06 07:23:38;;;;;;;;;;;8.00;99.90;;;;;;5120690;27;20008;-82
2022/04/06 07:26:05;;;;;;;;;;;8.00;99.90;;;;;;5112185;27;19968;-84
2022/04/06 07:28:32;;;;;;;;;;;8.10;99.90;;;;;;5104809;28;20155;-82
2022/04/06 07:30:59;;;;;;;;;;;8.10;99.90;;;;;;5124676;27;19934;-82
2022/04/06 07:33:26;;;;;;;;;;;8.10;99.90;;;;;;5135141;27;19935;-83
2022/04/06 07:35:53;;;;;;;;;;;8.10;99.90;;;;;;5124244;27;19927;-83
2022/04/06 07:38:20;;;;;;;;;;;8.10;99.90;;;;;;5108296;27;19939;-82
2022/04/06 07:40:48;;;;;;;;;;;8.20;99.90;;;;;;5107173;27;19931;-84
2022/04/06 07:43:15;;;;;;;;;;;8.20;99.90;;;;;;5111240;27;19935;-84
2022/04/06 07:45:42;;;;;;;;;;;8.20;99.90;;;;;;5101054;28;20651;-82
2022/04/06 07:48:09;;;;;;;;;;;8.20;99.90;;;;;;5115662;27;20702;-82
2022/04/06 07:50:36;;;;;;;;;;;8.20;99.90;;;;;;5114756;27;19924;-82
2022/04/06 07:53:03;;;;;;;;;;;8.30;99.90;;;;;;5116994;27;19931;-85
2022/04/06 07:55:30;;;;;;;;;;;8.30;99.90;;;;;;5129154;27;19923;-83
2022/04/06 07:57:58;;;;;;;;;;;8.30;99.90;;;;;;5117571;27;19927;-82
2022/04/06 08:00:32;;;;;;;;;;;8.30;99.90;;;;;;5121296;27;19977;-84
2022/04/06 08:03:00;;;;;;;;;;;8.40;99.90;;;;;;5107306;27;19931;-86
2022/04/06 08:05:27;;;;;;;;;;;8.40;99.90;;;;;;5107286;27;19928;-82
2022/04/06 08:07:54;;;;;;;;;;;8.40;99.90;;;;;;5122740;27;19923;-84
2022/04/06 08:10:21;;;;;;;;;;;8.50;99.90;;;;;;5124134;27;19931;-83
2022/04/06 08:12:49;;;;;;;;;;;8.50;99.90;;;;;;5124396;27;19935;-83
2022/04/06 08:15:17;;;;;;;;;;;8.50;99.90;;;;;;5108225;27;19939;-82
2022/04/06 08:17:45;;;;;;;;;;;8.60;99.90;;;;;;5107323;27;19931;-84
2022/04/06 08:20:12;;;;;;;;;;;8.60;99.90;;;;;;5126805;27;19928;-86
2022/04/06 08:22:39;;;;;;;;;;;8.60;99.90;;;;;;5132755;27;20018;-81
2022/04/06 08:25:07;;;;;;;;;;;8.60;99.90;;;;;;5110616;27;19944;-84
2022/04/06 08:27:36;;;;;;;;;;;8.70;99.90;;;;;;5113826;27;19955;-82
2022/04/06 08:30:04;;;;;;;;;;;8.70;99.90;;;;;;5112682;27;19969;-81
2022/04/06 08:32:32;;;;;;;;;;;8.70;99.90;;;;;;5130982;27;19931;-83
2022/04/06 08:34:59;;;;;;;;;;;8.80;99.90;;;;;;5132142;27;19968;-82
2022/04/06 08:37:26;;;;;;;;;;;8.80;99.90;;;;;;5128515;27;19923;-82
2022/04/06 08:39:53;;;;;;;;;;;8.80;99.90;;;;;;5113941;27;19984;-81
2022/04/06 08:42:20;;;;;;;;;;;8.80;99.90;;;;;;5133113;27;20113;-86
2022/04/06 08:44:47;;;;;;;;;;;8.80;99.90;;;;;;5132364;27;20400;-82
2022/04/06 08:47:14;;;;;;;;;;;8.90;99.90;;;;;;5117340;27;19938;-81
2022/04/06 08:49:43;;;;;;;;;;;8.90;99.90;;;;;;5133737;27;19928;-84
2022/04/06 08:52:10;;;;;;;;;;;8.90;99.90;;;;;;5132839;27;19927;-81
2022/04/06 08:54:38;;;;;;;;;;;9.00;99.90;;;;;;5114418;27;19931;-83
2022/04/06 08:57:05;;;;;;;;;;;9.00;99.90;;;;;;5130240;27;19924;-85
2022/04/06 08:59:32;;;;;;;;;;;9.00;99.90;;;;;;5130579;27;20026;-82
2022/04/06 09:01:59;;;;;;;;;;;9.10;99.90;;;;;;5136614;27;19923;-83
2022/04/06 09:04:29;;;;;;;;;;;9.10;99.90;;;;;;5112415;27;19923;-81
2022/04/06 09:07:07;;;;;;;;;;;9.10;99.90;;;;;;5112622;27;19924;-82
2022/04/06 09:09:35;;;;;;;;;;;9.20;99.90;;;;;;5124480;27;19959;-84
2022/04/06 09:12:06;;;;;;;;;;;9.20;99.90;;;;;;5132498;27;20013;-83
2022/04/06 09:14:33;;;;;;;;;;;9.30;99.90;;;;;;5128359;27;19938;-82
2022/04/06 09:17:04;;;;;;;;;;;9.30;99.90;;;;;;5128057;27;21084;-82
2022/04/06 09:19:31;;;;;;;;;;;9.40;99.90;;;;;;5133978;27;19927;-81
2022/04/06 09:22:00;;;;;;;;;;;9.40;99.90;;;;;;5114512;27;19931;-83
2022/04/06 09:24:28;;;;;;;;;;;9.50;99.90;;;;;;5132311;27;20388;-82
2022/04/06 09:26:58;;;;;;;;;;;9.50;99.90;;;;;;5129964;27;19930;-82
2022/04/06 09:29:25;;;;;;;;;;;9.50;99.90;;;;;;5132106;27;20343;-81
2022/04/06 09:31:52;;;;;;;;;;;9.50;99.90;;;;;;5132992;27;19923;-82
2022/04/06 09:34:21;;;;;;;;;;;9.60;99.90;;;;;;5134764;27;20010;-82
2022/04/06 09:36:47;;;;;;;;;;;9.60;99.90;;;;;;5130504;27;20375;-82
2022/04/06 09:39:16;;;;;;;;;;;9.60;99.90;;;;;;5129593;27;20305;-83
2022/04/06 09:41:58;;;;;;;;;;;9.70;99.90;;;;;;5134172;27;20497;-85
2022/04/06 09:50:07;;;;;;;;;;;9.80;99.90;;;;;;5117351;27;19919;-83
2022/04/06 09:52:35;;;;;;;;;;;9.80;99.90;;;;;;5126712;27;19924;-85
2022/04/06 09:55:06;;;;;;;;;;;9.80;99.90;;;;;;5137708;27;19924;-82
2022/04/06 09:57:35;;;;;;;;;;;9.90;99.90;;;;;;5129837;27;20319;-83
2022/04/06 10:00:03;;;;;;;;;;;9.90;99.90;;;;;;5128874;27;19924;-84
2022/04/06 10:02:32;;;;;;;;;;;9.90;99.90;;;;;;5130896;27;19966;-83
2022/04/06 10:04:59;;;;;;;;;;;10.00;99.90;;;;;;5115532;27;20027;-83
2022/04/06 10:07:26;;;;;;;;;;;10.00;99.90;;;;;;5133471;27;19927;-84
2022/04/06 10:09:53;;;;;;;;;;;10.00;99.90;;;;;;5129351;27;19962;-83
2022/04/06 10:12:22;;;;;;;;;;;10.00;99.90;;;;;;5130919;27;20282;-82
2022/04/06 10:14:49;;;;;;;;;;;10.00;99.90;;;;;;5115804;27;19931;-83
2022/04/06 10:17:16;;;;;;;;;;;10.00;99.90;;;;;;5112739;27;19938;-83
2022/04/06 10:19:46;;;;;;;;;;;10.10;99.90;;;;;;5117115;27;19932;-84
2022/04/06 10:22:18;;;;;;;;;;;10.10;99.90;;;;;;5114488;27;19927;-84
2022/04/06 10:24:49;;;;;;;;;;;10.10;99.90;;;;;;5130855;27;20183;-82
2022/04/06 10:27:17;;;;;;;;;;;10.20;99.90;;;;;;5125498;27;20551;-83
2022/04/06 10:30:02;;;;;;;;;;;10.20;99.90;;;;;;5123067;27;19924;-83
2022/04/06 10:32:35;;;;;;;;;;;10.20;99.90;;;;;;5108430;27;20381;-82
2022/04/06 10:35:16;;;;;;;;;;;10.20;99.90;;;;;;5131070;27;19945;-82
2022/04/06 10:38:12;;;;;;;;;;;10.30;99.90;;;;;;5114896;27;19928;-82
2022/04/06 10:40:59;;;;;;;;;;;10.30;99.90;;;;;;5114162;27;19928;-83
2022/04/06 10:43:51;;;;;;;;;;;10.30;99.90;;;;;;5135881;27;19929;-84
2022/04/06 10:46:20;;;;;;;;;;;10.40;99.90;;;;;;5109459;27;19928;-81
2022/04/06 10:48:47;;;;;;;;;;;;;;;;;;5140848;27;20022;-81
2022/04/06 10:51:35;;;;;;;;;;;10.50;99.90;;;;;;5113258;27;20441;-82
2022/04/06 10:54:34;;;;;;;;;;;10.50;99.90;;;;;;5125747;27;20235;-82
2022/04/06 10:57:01;;;;;;;;;;;10.50;99.90;;;;;;5135317;27;19949;-80
2022/04/06 10:59:29;;;;;;;;;;;10.60;99.90;;;;;;5133232;27;19930;-82
2022/04/06 11:02:11;;;;;;;;;;;10.60;99.90;;;;;;5115040;27;19975;-79
2022/04/06 11:04:39;;;;;;;;;;;10.70;99.90;;;;;;5126814;27;19938;-77
2022/04/06 11:07:08;;;;;;;;;;;10.70;99.90;;;;;;5115515;27;21315;-79
2022/04/06 11:12:22;;;;;;;;;;;;;;;;;;5113785;27;19930;-79
2022/04/06 11:14:49;;;;;;;;;;;10.80;99.90;;;;;;5130588;27;19923;-79
2022/04/06 11:17:37;;;;;;;;;;;10.90;99.90;;;;;;5133920;27;20303;-79
2022/04/06 11:20:06;;;;;;;;;;;10.90;99.90;;;;;;5132007;27;19942;-78
2022/04/06 11:22:33;;;;;;;;;;;10.90;99.90;;;;;;5129496;27;19923;-77
2022/04/06 11:25:02;;;;;;;;;;;11.00;99.90;;;;;;5109028;27;19930;-79
2022/04/06 11:27:30;;;;;;;;;;;11.00;99.90;;;;;;5115341;27;19963;-78
2022/04/06 11:30:04;;;;;;;;;;;11.00;99.90;;;;;;5125064;27;20073;-78
2022/04/06 11:32:30;;;;;;;;;;;11.10;99.90;;;;;;5112480;27;19945;-78
2022/04/06 11:35:01;;;;;;;;;;;11.10;99.90;;;;;;5126060;27;19924;-79
2022/04/06 11:37:28;;;;;;;;;;;11.10;99.90;;;;;;5110090;27;19928;-79
2022/04/06 11:39:59;;;;;;;;;;;11.10;99.90;;;;;;5099883;28;19999;-79
2022/04/06 11:42:27;;;;;;;;;;;11.20;99.90;;;;;;5126074;27;19932;-79
2022/04/06 11:44:54;;;;;;;;;;;11.20;99.90;;;;;;5109838;28;20346;-80
2022/04/06 11:47:28;;;;;;;;;;;11.30;99.90;;;;;;5104745;27;20072;-78
2022/04/06 11:49:55;;;;;;;;;;;11.30;99.90;;;;;;5100201;27;20305;-78
2022/04/06 11:52:22;;;;;;;;;;;11.30;99.90;;;;;;5120775;27;19927;-82
2022/04/06 11:54:53;;;;;;;;;;;11.30;99.90;;;;;;5128902;27;19935;-79
2022/04/06 11:57:21;;;;;;;;;;;11.30;99.90;;;;;;5131219;27;20408;-80
2022/04/06 11:59:56;;;;;;;;;;;11.30;99.90;;;;;;5131542;27;20296;-78
2022/04/06 12:02:23;;;;;;;;;;;11.40;99.90;;;;;;5134071;27;20627;-80
2022/04/06 12:04:59;;;;;;;;;;;11.40;99.90;;;;;;5133477;27;19941;-79
2022/04/06 12:07:26;;;;;;;;;;;11.40;99.90;;;;;;5124007;27;19935;-79
2022/04/06 12:09:53;;;;;;;;;;;11.50;99.90;;;;;;5113230;27;19923;-79
2022/04/06 12:12:22;;;;;;;;;;;11.50;99.90;;;;;;5114346;27;19931;-79
2022/04/06 12:14:49;;;;;;;;;;;11.60;99.90;;;;;;5113623;27;19931;-79
2022/04/06 12:17:17;;;;;;;;;;;11.70;99.90;;;;;;5114269;27;19927;-78
2022/04/06 12:19:44;;;;;;;;;;;11.70;99.90;;;;;;5114316;27;20018;-79
2022/04/06 12:22:11;;;;;;;;;;;11.70;99.90;;;;;;5110142;27;19931;-80
2022/04/06 12:24:39;;;;;;;;;;;11.70;99.90;;;;;;5118095;27;20108;-81
2022/04/06 12:27:06;;;;;;;;;;;11.80;99.90;;;;;;5114648;27;19935;-77
2022/04/06 12:29:36;;;;;;;;;;;11.80;99.90;;;;;;5128250;27;19930;-78
2022/04/06 12:32:04;;;;;;;;;;;11.90;99.90;;;;;;5123328;27;19935;-77
2022/04/06 12:34:33;;;;;;;;;;;11.90;99.90;;;;;;5115105;27;19999;-79
2022/04/06 12:37:29;;;;;;;;;;;12.10;99.90;;;;;;5122896;27;20718;-78
2022/04/06 12:39:51;;;;;;;;;;;13.10;99.90;;;;;;5110538;27;19938;-79
2022/04/06 12:42:18;;;;;;;;;;;13.60;99.90;;;;;;5121535;27;20309;-79
2022/04/06 12:44:56;;;;;;;;;;;13.70;99.90;;;;;;5108663;27;20397;-79
2022/04/06 12:47:24;;;;;;;;;;;13.90;99.90;;;;;;5104121;27;19954;-79
2022/04/06 12:49:52;;;;;;;;;;;14.00;99.90;;;;;;5121454;27;19973;-77
2022/04/06 12:52:20;;;;;;;;;;;13.90;99.90;;;;;;5121646;27;19992;-79
2022/04/06 12:54:49;;;;;;;;;;;13.70;99.90;;;;;;5121266;27;19980;-78
2022/04/06 12:57:17;;;;;;;;;;;13.40;99.90;;;;;;5119885;22;19936;-80
2022/04/06 12:59:45;;;;;;;;;;;13.30;99.90;;;;;;5100230;27;19928;-81
2022/04/06 13:02:19;;;;;;;;;;;13.20;99.90;;;;;;5104943;28;20335;-83
2022/04/06 13:04:46;;;;;;;;;;;13.80;99.90;;;;;;5111084;27;20336;-83
2022/04/06 13:07:14;;;;;;;;;;;14.20;99.90;;;;;;5107406;27;19932;-82
2022/04/06 13:09:50;;;;;;;;;;;14.30;99.90;;;;;;5121201;27;19923;-82
2022/04/06 13:12:17;;;;;;;;;;;14.20;99.90;;;;;;5112377;27;20022;-79
2022/04/06 13:14:44;;;;;;;;;;;13.90;99.90;;;;;;5103604;27;20571;-80
2022/04/06 13:17:10;;;;;;;;;;;13.70;99.90;;;;;;5086303;28;19927;-80
2022/04/06 13:19:37;;;;;;;;;;;13.60;99.90;;;;;;5112152;28;19923;-80
2022/04/06 13:22:05;;;;;;;;;;;13.60;99.90;;;;;;5112191;27;19927;-80
2022/04/06 13:24:33;;;;;;;;;;;13.50;99.90;;;;;;5109586;27;20350;-80
2022/04/06 13:27:01;;;;;;;;;;;13.50;99.90;;;;;;5113672;27;19924;-80
2022/04/06 13:29:28;;;;;;;;;;;13.50;99.90;;;;;;5109569;28;19927;-80
2022/04/06 13:31:55;;;;;;;;;;;13.50;99.90;;;;;;5111911;28;19924;-79
2022/04/06 13:34:22;;;;;;;;;;;13.50;99.90;;;;;;5094399;28;19924;-80
2022/04/06 13:36:49;;;;;;;;;;;13.50;99.90;;;;;;5109946;27;19956;-80
2022/04/06 13:39:16;;;;;;;;;;;13.50;99.90;;;;;;5114478;27;19924;-80
2022/04/06 13:41:45;;;;;;;;;;;13.50;99.90;;;;;;5075827;28;19963;-81
2022/04/06 13:44:14;;;;;;;;;;;13.50;99.90;;;;;;5109352;27;20038;-80
2022/04/06 13:46:41;;;;;;;;;;;13.50;99.90;;;;;;5109093;27;19931;-80
2022/04/06 13:49:08;;;;;;;;;;;13.50;99.90;;;;;;5104542;28;19923;-80
2022/04/06 13:51:35;;;;;;;;;;;13.50;99.90;;;;;;5093399;27;19932;-78
2022/04/06 13:54:02;;;;;;;;;;;13.60;99.90;;;;;;5098588;28;19928;-82
2022/04/06 13:56:29;;;;;;;;;;;13.60;99.90;;;;;;5108235;27;19935;-81
2022/04/06 13:58:59;;;;;;;;;;;13.60;99.90;;;;;;5103818;27;19935;-81
2022/04/06 14:01:26;;;;;;;;;;;13.60;99.90;;;;;;5097869;27;20014;-81
2022/04/06 14:03:54;;;;;;;;;;;13.60;99.90;;;;;;5089184;28;20429;-81
2022/04/06 14:06:21;;;;;;;;;;;13.60;99.90;;;;;;5109589;27;19956;-81
2022/04/06 14:08:48;;;;;;;;;;;13.50;99.90;;;;;;5113739;27;19924;-80
2022/04/06 14:11:15;;;;;;;;;;;13.50;99.90;;;;;;5108177;28;20355;-81
2022/04/06 14:13:42;;;;;;;;;;;13.50;99.90;;;;;;5094610;28;19967;-81
2022/04/06 14:16:10;;;;;;;;;;;13.50;99.90;;;;;;5083858;28;20633;-81
2022/04/06 14:18:37;;;;;;;;;;;13.50;99.90;;;;;;5084550;28;20090;-81
2022/04/06 14:21:04;;;;;;;;;;;13.50;99.90;;;;;;5110060;27;20006;-80
2022/04/06 14:23:31;;;;;;;;;;;13.50;99.90;;;;;;5091895;28;19928;-80
2022/04/06 14:25:58;;;;;;;;;;;13.50;99.90;;;;;;5079391;28;19924;-80
2022/04/06 14:28:25;;;;;;;;;;;13.50;99.90;;;;;;5109400;27;19939;-79
2022/04/06 14:30:54;;;;;;;;;;;13.50;99.90;;;;;;5107074;27;19955;-81
2022/04/06 14:33:22;;;;;;;;;;;13.40;99.90;;;;;;5088784;28;19977;-80
2022/04/06 14:35:49;;;;;;;;;;;13.40;99.90;;;;;;5105925;28;20020;-81
2022/04/06 14:38:16;;;;;;;;;;;13.50;99.90;;;;;;5108785;27;19928;-81
2022/04/06 14:40:47;;;;;;;;;;;13.40;99.90;;;;;;5114856;27;20627;-80
2022/04/06 14:43:14;;;;;;;;;;;13.40;99.90;;;;;;5110225;27;19928;-80
2022/04/06 14:45:41;;;;;;;;;;;13.40;99.90;;;;;;5112271;27;19923;-80